sensor_id;sensor_type;location;lat;lon;timestamp;temperature;humidity
15700;DHT22;7950;42.744;23.174;2022-09-14T00:00:09;13.70;99.90
15700;DHT22;7950;42.744;23.174;2022-09-14T00:02:38;13.70;99.90
15700;DHT22;7950;42.744;23.174;2022-09-14T00:05:08;13.70;99.90
15700;DHT22;7950;42.744;23.174;2022-09-14T00:07:36;13.60;99.90
15700;DHT22;7950;42.744;23.174;2022-09-14T00:10:05;13.50;99.90
15700;DHT22;7950;42.744;23.174;2022-09-14T00:12:34;13.30;99.90
15700;DHT22;7950;42.744;23.174;2022-09-14T00:15:04;13.10;99.90
15700;DHT22;7950;42.744;23.174;2022-09-14T00:17:34;13.00;99.90
15700;DHT22;7950;42.744;23.174;2022-09-14T00:20:15;13.00;99.90
15700;DHT22;7950;42.744;23.174;2022-09-14T00:22:43;12.90;99.90
15700;DHT22;7950;42.744;23.174;2022-09-14T00:25:12;12.90;99.90
15700;DHT22;7950;42.744;23.174;2022-09-14T00:27:41;12.80;99.90
15700;DHT22;7950;42.744;23.174;2022-09-14T00:30:18;12.70;99.90
15700;DHT22;7950;42.744;23.174;2022-09-14T00:32:48;12.60;99.90
15700;DHT22;7950;42.744;23.174;2022-09-14T00:35:17;12.50;99.90
15700;DHT22;7950;42.744;23.174;2022-09-14T00:37:48;12.50;99.90
15700;DHT22;7950;42.744;23.174;2022-09-14T00:40:18;12.50;99.90
15700;DHT22;7950;42.744;23.174;2022-09-14T00:42:47;12.50;99.90
15700;DHT22;7950;42.744;23.174;2022-09-14T00:45:18;12.40;99.90
15700;DHT22;7950;42.744;23.174;2022-09-14T00:47:51;12.40;99.90
15700;DHT22;7950;42.744;23.174;2022-09-14T00:50:23;12.30;99.90
15700;DHT22;7950;42.744;23.174;2022-09-14T00:52:51;12.20;99.90
15700;DHT22;7950;42.744;23.174;2022-09-14T00:55:22;12.10;99.90
15700;DHT22;7950;42.744;23.174;2022-09-14T00:57:52;12.10;99.90
15700;DHT22;7950;42.744;23.174;2022-09-14T01:00:22;12.00;99.90
15700;DHT22;7950;42.744;23.174;2022-09-14T01:02:54;12.00;99.90
15700;DHT22;7950;42.744;23.174;2022-09-14T01:05:33;12.00;99.90
15700;DHT22;7950;42.744;23.174;2022-09-14T01:08:29;12.00;99.90
15700;DHT22;7950;42.744;23.174;2022-09-14T01:14:24;12.00;99.90
15700;DHT22;7950;42.744;23.174;2022-09-14T01:17:05;12.00;99.90
15700;DHT22;7950;42.744;23.174;2022-09-14T01:22:59;11.90;99.90
15700;DHT22;7950;42.744;23.174;2022-09-14T01:29:05;11.90;99.90
15700;DHT22;7950;42.744;23.174;2022-09-14T01:31:46;11.80;99.90
15700;DHT22;7950;42.744;23.174;2022-09-14T01:34:24;11.80;99.90
15700;DHT22;7950;42.744;23.174;2022-09-14T01:37:03;11.70;99.90
15700;DHT22;7950;42.744;23.174;2022-09-14T01:39:41;11.60;99.90
15700;DHT22;7950;42.744;23.174;2022-09-14T01:42:38;11.60;99.90
15700;DHT22;7950;42.744;23.174;2022-09-14T01:45:13;11.50;99.90
15700;DHT22;7950;42.744;23.174;2022-09-14T01:47:47;11.50;99.90
15700;DHT22;7950;42.744;23.174;2022-09-14T01:50:23;11.40;99.90
15700;DHT22;7950;42.744;23.174;2022-09-14T01:52:57;11.40;99.90
15700;DHT22;7950;42.744;23.174;2022-09-14T01:55:34;11.40;99.90
15700;DHT22;7950;42.744;23.174;2022-09-14T01:58:09;11.30;99.90
15700;DHT22;7950;42.744;23.174;2022-09-14T02:00:44;11.30;99.90
15700;DHT22;7950;42.744;23.174;2022-09-14T02:03:17;11.20;99.90
15700;DHT22;7950;42.744;23.174;2022-09-14T02:05:54;11.20;99.90
15700;DHT22;7950;42.744;23.174;2022-09-14T02:08:28;11.10;99.90
15700;DHT22;7950;42.744;23.174;2022-09-14T02:10:59;11.10;99.90
15700;DHT22;7950;42.744;23.174;2022-09-14T02:13:28;11.10;99.90
15700;DHT22;7950;42.744;23.174;2022-09-14T02:15:59;11.10;99.90
15700;DHT22;7950;42.744;23.174;2022-09-14T02:18:28;11.00;99.90
15700;DHT22;7950;42.744;23.174;2022-09-14T02:20:59;11.00;99.90
15700;DHT22;7950;42.744;23.174;2022-09-14T02:23:34;10.90;99.90
15700;DHT22;7950;42.744;23.174;2022-09-14T02:26:03;10.90;99.90
15700;DHT22;7950;42.744;23.174;2022-09-14T02:28:32;10.90;99.90
15700;DHT22;7950;42.744;23.174;2022-09-14T02:31:11;10.80;99.90
15700;DHT22;7950;42.744;23.174;2022-09-14T02:33:51;10.80;99.90
15700;DHT22;7950;42.744;23.174;2022-09-14T02:36:39;10.80;99.90
15700;DHT22;7950;42.744;23.174;2022-09-14T02:39:23;10.70;99.90
15700;DHT22;7950;42.744;23.174;2022-09-14T02:41:58;10.70;99.90
15700;DHT22;7950;42.744;23.174;2022-09-14T02:44:42;10.70;99.90
15700;DHT22;7950;42.744;23.174;2022-09-14T02:47:29;10.60;99.90
15700;DHT22;7950;42.744;23.174;2022-09-14T02:50:20;10.60;99.90
15700;DHT22;7950;42.744;23.174;2022-09-14T02:52:58;10.50;99.90
15700;DHT22;7950;42.744;23.174;2022-09-14T02:55:38;10.50;99.90
15700;DHT22;7950;42.744;23.174;2022-09-14T02:58:13;10.50;99.90
15700;DHT22;7950;42.744;23.174;2022-09-14T03:01:08;10.40;99.90
15700;DHT22;7950;42.744;23.174;2022-09-14T03:03:40;10.40;99.90
15700;DHT22;7950;42.744;23.174;2022-09-14T03:06:09;10.30;99.90
15700;DHT22;7950;42.744;23.174;2022-09-14T03:08:39;10.30;99.90
15700;DHT22;7950;42.744;23.174;2022-09-14T03:11:07;10.30;99.90
15700;DHT22;7950;42.744;23.174;2022-09-14T03:13:37;10.20;99.90
15700;DHT22;7950;42.744;23.174;2022-09-14T03:16:06;10.20;99.90
15700;DHT22;7950;42.744;23.174;2022-09-14T03:18:37;10.20;99.90
15700;DHT22;7950;42.744;23.174;2022-09-14T03:21:09;10.20;99.90
15700;DHT22;7950;42.744;23.174;2022-09-14T03:23:41;10.10;99.90
15700;DHT22;7950;42.744;23.174;2022-09-14T03:26:12;10.10;99.90
15700;DHT22;7950;42.744;23.174;2022-09-14T03:28:42;10.10;99.90
15700;DHT22;7950;42.744;23.174;2022-09-14T03:31:11;10.10;99.90
15700;DHT22;7950;42.744;23.174;2022-09-14T03:33:40;10.00;99.90
15700;DHT22;7950;42.744;23.174;2022-09-14T03:36:37;9.90;99.90
15700;DHT22;7950;42.744;23.174;2022-09-14T03:39:06;9.90;99.90
15700;DHT22;7950;42.744;23.174;2022-09-14T03:41:35;9.90;99.90
15700;DHT22;7950;42.744;23.174;2022-09-14T03:44:04;9.80;99.90
15700;DHT22;7950;42.744;23.174;2022-09-14T03:46:32;9.80;99.90
15700;DHT22;7950;42.744;23.174;2022-09-14T03:49:01;9.80;99.90
15700;DHT22;7950;42.744;23.174;2022-09-14T03:51:32;9.80;99.90
15700;DHT22;7950;42.744;23.174;2022-09-14T03:54:03;9.80;99.90
15700;DHT22;7950;42.744;23.174;2022-09-14T03:56:32;9.70;99.90
15700;DHT22;7950;42.744;23.174;2022-09-14T03:59:01;9.70;99.90
15700;DHT22;7950;42.744;23.174;2022-09-14T04:01:31;9.70;99.90
15700;DHT22;7950;42.744;23.174;2022-09-14T04:04:01;9.70;99.90
15700;DHT22;7950;42.744;23.174;2022-09-14T04:07:04;9.60;99.90
15700;DHT22;7950;42.744;23.174;2022-09-14T04:09:35;9.60;99.90
15700;DHT22;7950;42.744;23.174;2022-09-14T04:12:05;9.60;99.90
15700;DHT22;7950;42.744;23.174;2022-09-14T04:14:34;9.70;99.90
15700;DHT22;7950;42.744;23.174;2022-09-14T04:17:03;9.60;99.90
15700;DHT22;7950;42.744;23.174;2022-09-14T04:19:32;9.50;99.90
15700;DHT22;7950;42.744;23.174;2022-09-14T04:22:03;9.60;99.90
15700;DHT22;7950;42.744;23.174;2022-09-14T04:24:32;9.50;99.90
15700;DHT22;7950;42.744;23.174;2022-09-14T04:27:03;9.60;99.90
15700;DHT22;7950;42.744;23.174;2022-09-14T04:29:32;9.60;99.90
15700;DHT22;7950;42.744;23.174;2022-09-14T04:32:02;9.60;99.90
15700;DHT22;7950;42.744;23.174;2022-09-14T04:34:31;9.70;99.90
15700;DHT22;7950;42.744;23.174;2022-09-14T04:36:59;9.90;99.90
15700;DHT22;7950;42.744;23.174;2022-09-14T04:39:28;10.10;99.90
15700;DHT22;7950;42.744;23.174;2022-09-14T04:41:57;10.10;99.90
15700;DHT22;7950;42.744;23.174;2022-09-14T04:44:27;10.20;99.90
15700;DHT22;7950;42.744;23.174;2022-09-14T04:46:55;10.40;99.90
15700;DHT22;7950;42.744;23.174;2022-09-14T04:49:24;10.50;99.90
15700;DHT22;7950;42.744;23.174;2022-09-14T04:51:52;10.50;99.90
15700;DHT22;7950;42.744;23.174;2022-09-14T04:54:21;10.70;99.90
15700;DHT22;7950;42.744;23.174;2022-09-14T04:56:49;10.80;99.90
15700;DHT22;7950;42.744;23.174;2022-09-14T04:59:18;11.00;99.90
15700;DHT22;7950;42.744;23.174;2022-09-14T05:01:49;11.10;99.90
15700;DHT22;7950;42.744;23.174;2022-09-14T05:04:18;11.20;99.90
15700;DHT22;7950;42.744;23.174;2022-09-14T05:06:46;11.40;99.90
15700;DHT22;7950;42.744;23.174;2022-09-14T05:09:17;11.60;99.90
15700;DHT22;7950;42.744;23.174;2022-09-14T05:11:45;11.80;99.90
15700;DHT22;7950;42.744;23.174;2022-09-14T05:14:15;12.00;99.90
15700;DHT22;7950;42.744;23.174;2022-09-14T05:16:44;12.20;99.90
15700;DHT22;7950;42.744;23.174;2022-09-14T05:19:16;12.40;99.90
15700;DHT22;7950;42.744;23.174;2022-09-14T05:21:45;12.40;99.90
15700;DHT22;7950;42.744;23.174;2022-09-14T05:24:15;12.40;99.90
15700;DHT22;7950;42.744;23.174;2022-09-14T05:26:45;12.60;99.90
15700;DHT22;7950;42.744;23.174;2022-09-14T05:29:18;12.60;99.90
15700;DHT22;7950;42.744;23.174;2022-09-14T05:31:46;12.70;99.90
15700;DHT22;7950;42.744;23.174;2022-09-14T05:34:16;12.80;99.90
15700;DHT22;7950;42.744;23.174;2022-09-14T05:36:45;13.00;99.90
15700;DHT22;7950;42.744;23.174;2022-09-14T05:39:13;13.10;99.90
15700;DHT22;7950;42.744;23.174;2022-09-14T05:41:49;13.30;99.90
15700;DHT22;7950;42.744;23.174;2022-09-14T05:44:17;13.40;99.90
15700;DHT22;7950;42.744;23.174;2022-09-14T05:46:46;13.60;99.90
15700;DHT22;7950;42.744;23.174;2022-09-14T05:49:16;13.70;99.90
15700;DHT22;7950;42.744;23.174;2022-09-14T05:51:45;13.80;99.90
15700;DHT22;7950;42.744;23.174;2022-09-14T05:54:13;13.70;99.90
15700;DHT22;7950;42.744;23.174;2022-09-14T05:56:42;13.60;99.90
15700;DHT22;7950;42.744;23.174;2022-09-14T05:59:10;13.70;99.90
15700;DHT22;7950;42.744;23.174;2022-09-14T06:01:39;13.80;99.90
15700;DHT22;7950;42.744;23.174;2022-09-14T06:04:09;14.10;99.90
15700;DHT22;7950;42.744;23.174;2022-09-14T06:06:40;14.30;99.90
15700;DHT22;7950;42.744;23.174;2022-09-14T06:09:27;14.50;99.90
15700;DHT22;7950;42.744;23.174;2022-09-14T06:11:59;14.70;99.90
15700;DHT22;7950;42.744;23.174;2022-09-14T06:14:27;15.00;99.90
15700;DHT22;7950;42.744;23.174;2022-09-14T06:16:58;15.10;99.90
15700;DHT22;7950;42.744;23.174;2022-09-14T06:19:26;15.40;99.90
15700;DHT22;7950;42.744;23.174;2022-09-14T06:21:56;15.60;99.90
15700;DHT22;7950;42.744;23.174;2022-09-14T06:24:25;15.70;99.90
15700;DHT22;7950;42.744;23.174;2022-09-14T06:26:53;15.70;99.90
15700;DHT22;7950;42.744;23.174;2022-09-14T06:29:22;15.60;99.90
15700;DHT22;7950;42.744;23.174;2022-09-14T06:31:50;15.70;99.90
15700;DHT22;7950;42.744;23.174;2022-09-14T06:34:20;15.90;99.90
15700;DHT22;7950;42.744;23.174;2022-09-14T06:36:49;16.10;99.90
15700;DHT22;7950;42.744;23.174;2022-09-14T06:39:19;16.10;99.90
15700;DHT22;7950;42.744;23.174;2022-09-14T06:41:47;16.20;99.90
15700;DHT22;7950;42.744;23.174;2022-09-14T06:44:18;16.30;99.90
15700;DHT22;7950;42.744;23.174;2022-09-14T06:46:46;16.50;99.90
15700;DHT22;7950;42.744;23.174;2022-09-14T06:49:15;16.60;99.90
15700;DHT22;7950;42.744;23.174;2022-09-14T07:28:58;17.60;99.90
15700;DHT22;7950;42.744;23.174;2022-09-14T07:31:29;18.50;99.90
15700;DHT22;7950;42.744;23.174;2022-09-14T07:34:01;18.50;99.90
15700;DHT22;7950;42.744;23.174;2022-09-14T07:36:33;18.80;99.90
15700;DHT22;7950;42.744;23.174;2022-09-14T07:39:04;19.00;99.90
15700;DHT22;7950;42.744;23.174;2022-09-14T07:41:34;19.00;99.90
15700;DHT22;7950;42.744;23.174;2022-09-14T07:44:05;19.10;99.90
15700;DHT22;7950;42.744;23.174;2022-09-14T07:46:37;19.30;99.90
15700;DHT22;7950;42.744;23.174;2022-09-14T07:49:08;19.50;99.90
15700;DHT22;7950;42.744;23.174;2022-09-14T07:51:38;19.60;99.90
15700;DHT22;7950;42.744;23.174;2022-09-14T07:54:10;19.60;99.90
15700;DHT22;7950;42.744;23.174;2022-09-14T07:56:40;19.90;99.90
15700;DHT22;7950;42.744;23.174;2022-09-14T07:59:12;20.20;99.90
15700;DHT22;7950;42.744;23.174;2022-09-14T08:02:03;20.40;99.90
15700;DHT22;7950;42.744;23.174;2022-09-14T08:04:33;20.50;99.90
15700;DHT22;7950;42.744;23.174;2022-09-14T08:07:02;20.70;99.90
15700;DHT22;7950;42.744;23.174;2022-09-14T08:09:31;20.70;99.90
15700;DHT22;7950;42.744;23.174;2022-09-14T08:12:00;20.90;99.90
15700;DHT22;7950;42.744;23.174;2022-09-14T08:14:33;21.10;99.90
15700;DHT22;7950;42.744;23.174;2022-09-14T08:17:02;21.40;99.90
15700;DHT22;7950;42.744;23.174;2022-09-14T08:19:31;21.40;99.90
15700;DHT22;7950;42.744;23.174;2022-09-14T08:22:01;21.40;99.90
15700;DHT22;7950;42.744;23.174;2022-09-14T08:24:30;21.50;99.90
15700;DHT22;7950;42.744;23.174;2022-09-14T08:26:59;21.70;99.90
15700;DHT22;7950;42.744;23.174;2022-09-14T08:29:28;21.90;99.60
15700;DHT22;7950;42.744;23.174;2022-09-14T08:31:58;22.00;99.00
15700;DHT22;7950;42.744;23.174;2022-09-14T08:34:27;22.20;98.60
15700;DHT22;7950;42.744;23.174;2022-09-14T08:36:59;22.30;97.40
15700;DHT22;7950;42.744;23.174;2022-09-14T08:39:27;22.30;96.40
15700;DHT22;7950;42.744;23.174;2022-09-14T08:41:58;22.30;96.70
15700;DHT22;7950;42.744;23.174;2022-09-14T08:44:29;22.10;97.20
15700;DHT22;7950;42.744;23.174;2022-09-14T08:47:07;22.20;98.60
15700;DHT22;7950;42.744;23.174;2022-09-14T08:49:45;22.30;96.80
15700;DHT22;7950;42.744;23.174;2022-09-14T08:52:21;22.50;97.20
15700;DHT22;7950;42.744;23.174;2022-09-14T08:54:54;22.70;94.60
15700;DHT22;7950;42.744;23.174;2022-09-14T08:57:27;22.90;94.60
15700;DHT22;7950;42.744;23.174;2022-09-14T09:00:06;22.90;93.80
15700;DHT22;7950;42.744;23.174;2022-09-14T09:03:09;23.00;93.40
15700;DHT22;7950;42.744;23.174;2022-09-14T09:06:06;23.00;93.00
15700;DHT22;7950;42.744;23.174;2022-09-14T09:08:48;23.30;93.70
15700;DHT22;7950;42.744;23.174;2022-09-14T09:11:27;23.30;93.30
15700;DHT22;7950;42.744;23.174;2022-09-14T09:14:11;23.50;93.10
15700;DHT22;7950;42.744;23.174;2022-09-14T09:16:49;23.60;94.10
15700;DHT22;7950;42.744;23.174;2022-09-14T09:19:26;23.60;92.10
15700;DHT22;7950;42.744;23.174;2022-09-14T09:21:59;23.60;91.60
15700;DHT22;7950;42.744;23.174;2022-09-14T09:24:35;23.80;86.80
15700;DHT22;7950;42.744;23.174;2022-09-14T09:27:09;24.00;82.80
15700;DHT22;7950;42.744;23.174;2022-09-14T09:29:39;24.00;78.40
15700;DHT22;7950;42.744;23.174;2022-09-14T09:32:13;24.00;78.50
15700;DHT22;7950;42.744;23.174;2022-09-14T09:34:46;24.00;78.40
15700;DHT22;7950;42.744;23.174;2022-09-14T09:37:16;24.10;76.10
15700;DHT22;7950;42.744;23.174;2022-09-14T09:39:46;24.20;75.40
15700;DHT22;7950;42.744;23.174;2022-09-14T09:42:20;24.20;73.60
15700;DHT22;7950;42.744;23.174;2022-09-14T09:44:57;24.30;73.90
15700;DHT22;7950;42.744;23.174;2022-09-14T09:47:32;24.30;75.10
15700;DHT22;7950;42.744;23.174;2022-09-14T09:50:16;24.40;71.60
15700;DHT22;7950;42.744;23.174;2022-09-14T09:52:49;24.40;70.60
15700;DHT22;7950;42.744;23.174;2022-09-14T09:55:20;24.40;69.20
15700;DHT22;7950;42.744;23.174;2022-09-14T09:57:53;24.40;70.10
15700;DHT22;7950;42.744;23.174;2022-09-14T10:00:24;24.60;69.30
15700;DHT22;7950;42.744;23.174;2022-09-14T10:02:54;24.60;67.80
15700;DHT22;7950;42.744;23.174;2022-09-14T10:05:27;24.70;68.20
15700;DHT22;7950;42.744;23.174;2022-09-14T10:07:59;24.90;68.80
15700;DHT22;7950;42.744;23.174;2022-09-14T10:10:40;25.10;69.70
15700;DHT22;7950;42.744;23.174;2022-09-14T10:13:22;25.30;66.00
15700;DHT22;7950;42.744;23.174;2022-09-14T10:16:20;25.30;66.40
15700;DHT22;7950;42.744;23.174;2022-09-14T10:18:51;25.20;66.60
15700;DHT22;7950;42.744;23.174;2022-09-14T10:21:23;25.30;64.00
15700;DHT22;7950;42.744;23.174;2022-09-14T10:24:04;25.40;66.00
15700;DHT22;7950;42.744;23.174;2022-09-14T10:26:35;25.50;61.80
15700;DHT22;7950;42.744;23.174;2022-09-14T10:32:16;25.60;62.10
15700;DHT22;7950;42.744;23.174;2022-09-14T10:34:49;25.60;61.50
15700;DHT22;7950;42.744;23.174;2022-09-14T10:37:30;25.70;61.80
15700;DHT22;7950;42.744;23.174;2022-09-14T10:40:15;25.70;60.60
15700;DHT22;7950;42.744;23.174;2022-09-14T10:43:00;25.70;61.50
15700;DHT22;7950;42.744;23.174;2022-09-14T10:45:39;25.80;60.60
15700;DHT22;7950;42.744;23.174;2022-09-14T10:48:45;25.80;61.40
15700;DHT22;7950;42.744;23.174;2022-09-14T10:51:32;25.80;59.90
15700;DHT22;7950;42.744;23.174;2022-09-14T10:54:27;25.80;60.00
15700;DHT22;7950;42.744;23.174;2022-09-14T10:57:16;25.90;61.70
15700;DHT22;7950;42.744;23.174;2022-09-14T10:59:54;26.00;60.80
15700;DHT22;7950;42.744;23.174;2022-09-14T11:02:59;26.00;61.30
15700;DHT22;7950;42.744;23.174;2022-09-14T11:05:45;26.00;59.40
15700;DHT22;7950;42.744;23.174;2022-09-14T11:08:29;26.00;62.40
15700;DHT22;7950;42.744;23.174;2022-09-14T11:11:19;26.20;62.00
15700;DHT22;7950;42.744;23.174;2022-09-14T11:14:09;26.20;58.20
15700;DHT22;7950;42.744;23.174;2022-09-14T11:16:56;26.20;60.40
15700;DHT22;7950;42.744;23.174;2022-09-14T11:56:21;26.60;59.40
15700;DHT22;7950;42.744;23.174;2022-09-14T11:58:54;27.20;59.40
15700;DHT22;7950;42.744;23.174;2022-09-14T12:01:33;27.20;58.20
15700;DHT22;7950;42.744;23.174;2022-09-14T12:04:09;27.30;59.20
15700;DHT22;7950;42.744;23.174;2022-09-14T12:06:55;27.30;58.70
15700;DHT22;7950;42.744;23.174;2022-09-14T12:09:49;27.30;59.10
15700;DHT22;7950;42.744;23.174;2022-09-14T12:12:31;27.30;58.80
15700;DHT22;7950;42.744;23.174;2022-09-14T12:15:14;27.30;59.30
15700;DHT22;7950;42.744;23.174;2022-09-14T12:17:48;27.40;59.40
15700;DHT22;7950;42.744;23.174;2022-09-14T12:20:30;27.50;59.30
15700;DHT22;7950;42.744;23.174;2022-09-14T12:23:26;27.60;59.00
15700;DHT22;7950;42.744;23.174;2022-09-14T12:26:05;27.70;57.10
15700;DHT22;7950;42.744;23.174;2022-09-14T12:28:45;27.70;55.90
15700;DHT22;7950;42.744;23.174;2022-09-14T12:34:32;27.70;55.80
15700;DHT22;7950;42.744;23.174;2022-09-14T12:37:34;27.50;56.60
15700;DHT22;7950;42.744;23.174;2022-09-14T12:40:34;27.60;56.60
15700;DHT22;7950;42.744;23.174;2022-09-14T12:46:39;27.90;58.60
15700;DHT22;7950;42.744;23.174;2022-09-14T12:49:33;27.80;58.40
15700;DHT22;7950;42.744;23.174;2022-09-14T12:52:17;28.00;58.40
15700;DHT22;7950;42.744;23.174;2022-09-14T12:55:04;28.10;58.80
15700;DHT22;7950;42.744;23.174;2022-09-14T12:57:49;28.20;57.90
15700;DHT22;7950;42.744;23.174;2022-09-14T13:00:24;28.20;59.00
15700;DHT22;7950;42.744;23.174;2022-09-14T13:03:13;28.30;57.90
15700;DHT22;7950;42.744;23.174;2022-09-14T13:06:01;28.20;58.00
15700;DHT22;7950;42.744;23.174;2022-09-14T13:08:31;28.10;58.30
15700;DHT22;7950;42.744;23.174;2022-09-14T13:11:00;28.20;59.60
15700;DHT22;7950;42.744;23.174;2022-09-14T13:13:31;28.30;58.30
15700;DHT22;7950;42.744;23.174;2022-09-14T13:16:03;28.30;57.80
15700;DHT22;7950;42.744;23.174;2022-09-14T13:18:36;28.20;58.30
15700;DHT22;7950;42.744;23.174;2022-09-14T13:21:17;28.30;57.80
15700;DHT22;7950;42.744;23.174;2022-09-14T13:23:47;28.20;58.70
15700;DHT22;7950;42.744;23.174;2022-09-14T13:26:30;28.30;58.30
15700;DHT22;7950;42.744;23.174;2022-09-14T13:29:01;28.20;58.70
15700;DHT22;7950;42.744;23.174;2022-09-14T13:31:32;28.20;58.90
15700;DHT22;7950;42.744;23.174;2022-09-14T13:34:04;28.30;58.30
15700;DHT22;7950;42.744;23.174;2022-09-14T13:36:39;28.30;58.50
15700;DHT22;7950;42.744;23.174;2022-09-14T13:39:16;28.30;58.50
15700;DHT22;7950;42.744;23.174;2022-09-14T13:41:55;28.20;57.80
15700;DHT22;7950;42.744;23.174;2022-09-14T13:44:52;28.20;57.90
15700;DHT22;7950;42.744;23.174;2022-09-14T13:47:22;28.20;58.40
15700;DHT22;7950;42.744;23.174;2022-09-14T13:49:54;28.20;57.90
15700;DHT22;7950;42.744;23.174;2022-09-14T13:52:30;28.20;58.20
15700;DHT22;7950;42.744;23.174;2022-09-14T13:55:26;28.20;58.50
15700;DHT22;7950;42.744;23.174;2022-09-14T13:58:11;28.30;57.20
15700;DHT22;7950;42.744;23.174;2022-09-14T14:00:50;28.20;58.50
15700;DHT22;7950;42.744;23.174;2022-09-14T14:03:31;28.10;58.50
15700;DHT22;7950;42.744;23.174;2022-09-14T14:06:17;28.20;58.10
15700;DHT22;7950;42.744;23.174;2022-09-14T14:08:56;28.30;58.50
15700;DHT22;7950;42.744;23.174;2022-09-14T14:11:30;28.20;57.70
15700;DHT22;7950;42.744;23.174;2022-09-14T14:14:17;28.20;58.20
15700;DHT22;7950;42.744;23.174;2022-09-14T14:17:20;28.10;57.50
15700;DHT22;7950;42.744;23.174;2022-09-14T14:19:52;28.10;57.70
15700;DHT22;7950;42.744;23.174;2022-09-14T14:22:27;28.00;58.30
15700;DHT22;7950;42.744;23.174;2022-09-14T14:24:59;28.00;57.70
15700;DHT22;7950;42.744;23.174;2022-09-14T14:27:46;27.90;58.10
15700;DHT22;7950;42.744;23.174;2022-09-14T14:30:17;27.90;57.30
15700;DHT22;7950;42.744;23.174;2022-09-14T14:32:49;27.90;57.40
15700;DHT22;7950;42.744;23.174;2022-09-14T14:35:20;27.90;57.40
15700;DHT22;7950;42.744;23.174;2022-09-14T14:37:51;27.80;57.60
15700;DHT22;7950;42.744;23.174;2022-09-14T14:40:20;27.80;57.80
15700;DHT22;7950;42.744;23.174;2022-09-14T14:42:50;27.80;58.90
15700;DHT22;7950;42.744;23.174;2022-09-14T14:45:22;27.80;58.50
15700;DHT22;7950;42.744;23.174;2022-09-14T14:47:53;27.70;58.20
15700;DHT22;7950;42.744;23.174;2022-09-14T14:50:25;27.70;59.10
15700;DHT22;7950;42.744;23.174;2022-09-14T14:52:57;27.70;59.10
15700;DHT22;7950;42.744;23.174;2022-09-14T14:55:27;27.70;59.10
15700;DHT22;7950;42.744;23.174;2022-09-14T14:58:00;27.70;59.10
15700;DHT22;7950;42.744;23.174;2022-09-14T15:00:32;27.70;59.60
15700;DHT22;7950;42.744;23.174;2022-09-14T15:03:02;27.60;59.80
15700;DHT22;7950;42.744;23.174;2022-09-14T15:05:32;27.60;59.40
15700;DHT22;7950;42.744;23.174;2022-09-14T15:08:02;27.50;60.00
15700;DHT22;7950;42.744;23.174;2022-09-14T15:10:31;27.40;59.70
15700;DHT22;7950;42.744;23.174;2022-09-14T15:13:00;27.30;59.80
15700;DHT22;7950;42.744;23.174;2022-09-14T15:15:28;27.20;59.80
15700;DHT22;7950;42.744;23.174;2022-09-14T15:17:57;27.20;60.20
15700;DHT22;7950;42.744;23.174;2022-09-14T15:20:26;27.20;60.70
15700;DHT22;7950;42.744;23.174;2022-09-14T15:22:55;27.20;61.30
15700;DHT22;7950;42.744;23.174;2022-09-14T15:25:25;27.20;62.70
15700;DHT22;7950;42.744;23.174;2022-09-14T15:27:54;27.20;63.10
15700;DHT22;7950;42.744;23.174;2022-09-14T15:30:22;27.10;63.00
15700;DHT22;7950;42.744;23.174;2022-09-14T15:32:51;27.00;62.10
15700;DHT22;7950;42.744;23.174;2022-09-14T15:35:20;27.00;62.70
15700;DHT22;7950;42.744;23.174;2022-09-14T15:37:49;26.90;63.50
15700;DHT22;7950;42.744;23.174;2022-09-14T15:40:17;26.80;63.70
15700;DHT22;7950;42.744;23.174;2022-09-14T15:42:47;26.80;65.40
15700;DHT22;7950;42.744;23.174;2022-09-14T15:45:16;26.70;65.40
15700;DHT22;7950;42.744;23.174;2022-09-14T15:47:45;26.60;65.70
15700;DHT22;7950;42.744;23.174;2022-09-14T15:50:14;26.50;66.60
15700;DHT22;7950;42.744;23.174;2022-09-14T15:52:43;26.40;67.60
15700;DHT22;7950;42.744;23.174;2022-09-14T15:55:12;26.30;67.80
15700;DHT22;7950;42.744;23.174;2022-09-14T15:57:40;26.20;69.40
15700;DHT22;7950;42.744;23.174;2022-09-14T16:00:12;26.00;71.10
15700;DHT22;7950;42.744;23.174;2022-09-14T16:02:41;25.90;74.80
15700;DHT22;7950;42.744;23.174;2022-09-14T16:05:10;25.70;77.10
15700;DHT22;7950;42.744;23.174;2022-09-14T16:07:40;25.60;76.80
15700;DHT22;7950;42.744;23.174;2022-09-14T16:10:09;25.40;78.50
15700;DHT22;7950;42.744;23.174;2022-09-14T16:12:38;25.30;80.50
15700;DHT22;7950;42.744;23.174;2022-09-14T16:15:07;25.10;83.20
15700;DHT22;7950;42.744;23.174;2022-09-14T16:17:40;24.90;87.80
15700;DHT22;7950;42.744;23.174;2022-09-14T16:20:09;24.80;86.80
15700;DHT22;7950;42.744;23.174;2022-09-14T16:22:38;24.60;86.40
15700;DHT22;7950;42.744;23.174;2022-09-14T16:25:06;24.40;88.80
15700;DHT22;7950;42.744;23.174;2022-09-14T16:27:35;24.30;91.20
15700;DHT22;7950;42.744;23.174;2022-09-14T16:30:05;24.10;92.10
15700;DHT22;7950;42.744;23.174;2022-09-14T16:32:35;24.00;93.50
15700;DHT22;7950;42.744;23.174;2022-09-14T16:35:29;23.80;94.50
15700;DHT22;7950;42.744;23.174;2022-09-14T16:37:58;23.60;95.00
15700;DHT22;7950;42.744;23.174;2022-09-14T16:40:27;23.50;95.50
15700;DHT22;7950;42.744;23.174;2022-09-14T16:42:57;23.30;95.90
15700;DHT22;7950;42.744;23.174;2022-09-14T16:45:26;23.20;96.60
15700;DHT22;7950;42.744;23.174;2022-09-14T16:47:55;23.10;97.80
15700;DHT22;7950;42.744;23.174;2022-09-14T16:50:23;22.90;98.90
15700;DHT22;7950;42.744;23.174;2022-09-14T16:52:54;22.80;99.90
15700;DHT22;7950;42.744;23.174;2022-09-14T16:55:22;22.60;99.90
15700;DHT22;7950;42.744;23.174;2022-09-14T16:57:51;22.50;99.90
15700;DHT22;7950;42.744;23.174;2022-09-14T17:00:20;22.30;99.90
15700;DHT22;7950;42.744;23.174;2022-09-14T17:02:50;22.20;99.90
15700;DHT22;7950;42.744;23.174;2022-09-14T17:05:19;22.00;99.90
15700;DHT22;7950;42.744;23.174;2022-09-14T17:07:55;21.90;99.90
15700;DHT22;7950;42.744;23.174;2022-09-14T17:10:23;21.70;99.90
15700;DHT22;7950;42.744;23.174;2022-09-14T17:12:52;21.50;99.90
15700;DHT22;7950;42.744;23.174;2022-09-14T17:15:24;21.50;99.90
15700;DHT22;7950;42.744;23.174;2022-09-14T17:17:54;21.30;99.90
15700;DHT22;7950;42.744;23.174;2022-09-14T17:20:23;21.30;99.90
15700;DHT22;7950;42.744;23.174;2022-09-14T17:22:51;21.10;99.90
15700;DHT22;7950;42.744;23.174;2022-09-14T17:25:22;21.00;99.90
15700;DHT22;7950;42.744;23.174;2022-09-14T17:27:51;20.80;99.90
15700;DHT22;7950;42.744;23.174;2022-09-14T17:30:20;20.70;99.90
15700;DHT22;7950;42.744;23.174;2022-09-14T17:32:49;20.70;99.90
15700;DHT22;7950;42.744;23.174;2022-09-14T17:35:44;20.70;99.90
15700;DHT22;7950;42.744;23.174;2022-09-14T17:38:14;20.80;99.90
15700;DHT22;7950;42.744;23.174;2022-09-14T17:40:44;20.80;99.90
15700;DHT22;7950;42.744;23.174;2022-09-14T17:43:14;20.90;99.90
15700;DHT22;7950;42.744;23.174;2022-09-14T17:45:51;20.80;99.90
15700;DHT22;7950;42.744;23.174;2022-09-14T17:48:21;20.90;99.90